Smithton, Illinois
Current Conditions -  °F | °C
As of 5:46 PM on Saturday 22 Nov 2014 (Local Time) from KBLV Reporting Station
Light Rain Light Rain  
Wind Chill: 55°   Ceiling: 3100
Heat Index: 55°   Visibility: 10mi
Dew Point: 52°   Wind: 12mph
Humidity: 88%   Direction: 160°SSE
Pressure: 29.95"   Gusts: NA
Location:  38.41°N, 89.99°W
Report Text: KBLV 222346Z AUTO 16010KT 10SM -RA OVC031 13/11 A2995 RMK AO2
Loading
Personal Weather Stations






























Interactive Weather Map New forecast layout! Learn more

10-Day Weather Forecast

Advertisements
Track Severe Weather on mobile